createdAt,value
2023-03-15T00:02:23.372Z,9.16
2023-03-15T00:05:25.461Z,9.15
2023-03-15T00:08:28.135Z,9.13
2023-03-15T00:11:31.240Z,9.11
2023-03-15T00:14:33.216Z,9.10
2023-03-15T00:17:35.365Z,9.00
2023-03-15T00:20:38.673Z,8.94
2023-03-15T00:23:40.762Z,8.85
2023-03-15T00:26:42.786Z,8.81
2023-03-15T00:29:45.143Z,8.78
2023-03-15T00:32:47.276Z,8.73
2023-03-15T00:35:49.334Z,8.67
2023-03-15T00:38:53.617Z,8.64
2023-03-15T00:41:57.157Z,8.57
2023-03-15T00:44:59.684Z,8.57
2023-03-15T00:48:01.728Z,8.50
2023-03-15T00:51:08.114Z,8.50
2023-03-15T00:54:13.927Z,8.45
2023-03-15T00:57:15.991Z,8.43
2023-03-15T01:00:24.889Z,8.48
2023-03-15T01:03:28.654Z,8.51
2023-03-15T01:06:30.905Z,8.50
2023-03-15T01:09:32.965Z,8.46
2023-03-15T01:12:35.870Z,8.44
2023-03-15T01:15:37.886Z,8.44
2023-03-15T01:18:41.414Z,8.38
2023-03-15T01:21:44.344Z,8.36
2023-03-15T01:24:46.695Z,8.30
2023-03-15T01:27:48.713Z,8.31
2023-03-15T01:30:53.405Z,8.29
2023-03-15T01:33:56.153Z,8.25
2023-03-15T01:36:58.337Z,8.21
2023-03-15T01:40:00.666Z,8.22
2023-03-15T01:43:25.399Z,8.24
2023-03-15T01:46:35.522Z,8.28
2023-03-15T01:49:37.800Z,8.38
2023-03-15T01:52:43.083Z,8.36
2023-03-15T01:55:45.289Z,8.31
2023-03-15T01:58:48.713Z,8.25
2023-03-15T02:01:54.655Z,8.24
2023-03-15T02:05:09.984Z,8.23
2023-03-15T02:08:15.546Z,8.29
2023-03-15T02:11:24.476Z,8.25
2023-03-15T02:14:28.220Z,8.21
2023-03-15T02:17:39.634Z,8.23
2023-03-15T02:21:10.856Z,8.24
2023-03-15T02:24:30.105Z,8.23
2023-03-15T03:39:04.678Z,8.64
2023-03-15T03:42:07.265Z,8.64
2023-03-15T03:45:09.784Z,8.09
2023-03-15T03:48:12.047Z,8.07
2023-03-15T03:51:14.291Z,8.04
2023-03-15T03:54:17.651Z,8.02
2023-03-15T03:57:19.822Z,7.99
2023-03-15T04:00:23.788Z,7.97
2023-03-15T04:03:29.340Z,7.96
2023-03-15T04:06:31.592Z,7.98
2023-03-15T04:09:37.671Z,7.95
2023-03-15T04:12:39.894Z,7.88
2023-03-15T04:15:42.013Z,7.88
2023-03-15T04:18:44.035Z,7.86
2023-03-15T04:21:49.221Z,7.86
2023-03-15T04:24:51.294Z,7.87
2023-03-15T04:28:00.140Z,7.82
2023-03-15T04:31:02.399Z,7.89
2023-03-15T04:34:05.917Z,7.88
2023-03-15T04:37:08.052Z,7.82
2023-03-15T04:40:11.824Z,7.77
2023-03-15T04:43:14.633Z,7.75
2023-03-15T04:46:16.633Z,7.73
2023-03-15T04:49:18.721Z,7.65
2023-03-15T04:52:20.734Z,7.64
2023-03-15T04:55:23.175Z,7.55
2023-03-15T04:58:25.245Z,7.48
2023-03-15T05:01:32.169Z,7.41
2023-03-15T05:04:34.249Z,7.37
2023-03-15T05:07:37.262Z,7.31
2023-03-15T05:10:39.416Z,7.24
2023-03-15T05:13:41.409Z,7.17
2023-03-15T05:16:43.480Z,7.12
2023-03-15T05:19:46.319Z,7.07
2023-03-15T05:22:49.232Z,7.03
2023-03-15T05:25:55.983Z,6.99
2023-03-15T05:28:58.157Z,6.93
2023-03-15T05:32:00.244Z,6.93
2023-03-15T05:35:02.626Z,6.88
2023-03-15T05:38:04.907Z,6.84
2023-03-15T05:41:09.524Z,6.78
2023-03-15T05:44:11.754Z,6.77
2023-03-15T05:47:13.822Z,6.75
2023-03-15T05:50:17.392Z,6.70
2023-03-15T05:53:19.863Z,6.68
2023-03-15T05:56:22.004Z,6.70
2023-03-15T05:59:24.135Z,6.64
2023-03-15T06:02:26.189Z,6.60
2023-03-15T06:05:28.266Z,6.56
2023-03-15T06:08:30.375Z,6.53
2023-03-15T06:11:32.439Z,6.54
2023-03-15T06:14:34.658Z,6.56
2023-03-15T06:17:36.734Z,6.56
2023-03-15T06:20:42.580Z,6.55
2023-03-15T06:23:44.934Z,6.59
2023-03-15T06:26:47.012Z,6.55
2023-03-15T06:29:52.364Z,6.52
2023-03-15T06:32:55.281Z,6.50
2023-03-15T06:35:57.383Z,6.49
2023-03-15T06:38:59.534Z,6.49
2023-03-15T06:42:02.751Z,6.36
2023-03-15T06:45:06.271Z,6.40
2023-03-15T06:48:08.350Z,6.33
2023-03-15T06:51:12.331Z,6.41
2023-03-15T06:54:14.487Z,6.34
2023-03-15T06:57:16.547Z,6.25
2023-03-15T07:00:19.806Z,6.31
2023-03-15T07:03:23.814Z,6.18
2023-03-15T07:06:27.728Z,6.11
2023-03-15T07:09:30.369Z,6.16
2023-03-15T07:12:32.472Z,6.08
2023-03-15T07:15:37.245Z,5.95
2023-03-15T07:18:39.465Z,5.88
2023-03-15T07:21:41.687Z,5.80
2023-03-15T07:24:44.371Z,5.79
2023-03-15T07:27:46.442Z,5.78
2023-03-15T07:30:56.888Z,5.85
2023-03-15T07:33:59.602Z,5.86
2023-03-15T07:37:01.906Z,5.80
2023-03-15T07:40:06.686Z,5.93
2023-03-15T07:43:09.619Z,5.93
2023-03-15T07:46:12.049Z,6.04
2023-03-15T07:49:14.136Z,5.96
2023-03-15T07:52:16.292Z,6.09
2023-03-15T07:55:18.989Z,6.05
2023-03-15T07:58:21.069Z,5.88
2023-03-15T08:01:23.282Z,5.83
2023-03-15T08:04:25.552Z,5.81
2023-03-15T08:07:27.673Z,5.82
2023-03-15T08:10:30.312Z,5.84
2023-03-15T08:13:32.724Z,5.86
2023-03-15T08:16:34.801Z,5.85
2023-03-15T08:19:37.008Z,6.00
2023-03-15T08:22:39.380Z,5.91
2023-03-15T08:25:41.820Z,5.97
2023-03-15T08:28:44.415Z,5.96
2023-03-15T08:31:46.685Z,5.87
2023-03-15T08:34:48.750Z,6.00
2023-03-15T08:37:52.574Z,6.02
2023-03-15T08:40:57.333Z,6.03
2023-03-15T08:43:59.631Z,5.96
2023-03-15T08:47:02.277Z,5.94
2023-03-15T08:50:07.198Z,6.02
2023-03-15T08:53:11.208Z,6.08
2023-03-15T08:56:13.498Z,6.04
2023-03-15T08:59:28.986Z,6.17
2023-03-15T09:02:33.579Z,6.08
2023-03-15T09:05:36.800Z,6.16
2023-03-15T09:08:38.891Z,6.33
2023-03-15T09:11:40.977Z,6.11
2023-03-15T09:14:44.106Z,6.20
2023-03-15T09:17:46.304Z,6.39
2023-03-15T09:20:48.597Z,6.32
2023-03-15T09:23:51.188Z,6.21
2023-03-15T09:26:53.202Z,6.19
2023-03-15T09:29:55.385Z,6.09
2023-03-15T09:32:57.595Z,6.19
2023-03-15T09:36:00.348Z,6.11
2023-03-15T09:39:02.906Z,6.17
2023-03-15T09:42:16.598Z,6.41
2023-03-15T09:45:27.323Z,6.27
2023-03-15T09:48:50.920Z,6.28
2023-03-15T09:52:07.239Z,6.22
2023-03-15T09:55:12.020Z,6.31
2023-03-15T09:58:21.981Z,6.31
2023-03-15T10:01:37.855Z,6.22
2023-03-15T10:04:43.625Z,6.17
2023-03-15T10:07:46.399Z,6.28
2023-03-15T10:11:21.932Z,6.48
2023-03-15T10:14:39.441Z,6.55
2023-03-15T10:17:58.001Z,6.53
2023-03-15T10:21:16.361Z,6.60
2023-03-15T10:24:27.894Z,6.65
2023-03-15T10:27:47.769Z,6.76
2023-03-15T10:30:53.939Z,6.67
2023-03-15T10:33:57.152Z,6.90
2023-03-15T10:36:59.185Z,7.09
2023-03-15T10:40:01.364Z,7.05
2023-03-15T10:43:13.983Z,7.07
2023-03-15T10:46:23.528Z,6.96
2023-03-15T10:49:36.963Z,7.11
2023-03-15T10:52:40.847Z,7.10
2023-03-15T10:55:45.137Z,6.99
2023-03-15T10:59:05.363Z,7.02
2023-03-15T11:02:16.841Z,7.06
2023-03-15T11:05:19.888Z,7.16
2023-03-15T11:08:44.336Z,7.00
2023-03-15T11:12:03.042Z,7.10
2023-03-15T11:15:14.964Z,7.21
2023-03-15T11:18:25.554Z,7.21
2023-03-15T11:21:35.803Z,7.37
2023-03-15T11:24:38.028Z,7.39
2023-03-15T11:27:41.756Z,7.38
2023-03-15T11:30:47.909Z,7.55
2023-03-15T11:34:47.684Z,7.58
2023-03-15T11:38:14.687Z,7.96
2023-03-15T11:41:42.864Z,7.95
2023-03-15T11:44:55.177Z,7.81
2023-03-15T11:48:04.347Z,7.90
2023-03-15T11:51:08.444Z,8.01
2023-03-15T11:54:15.876Z,8.16
2023-03-15T11:57:30.696Z,8.31
2023-03-15T12:00:35.167Z,8.54
2023-03-15T12:03:46.634Z,8.88
2023-03-15T12:06:48.894Z,9.02
2023-03-15T12:09:57.905Z,8.86
2023-03-15T12:13:08.421Z,8.70
2023-03-15T12:16:12.358Z,8.74
2023-03-15T12:19:16.423Z,9.24
2023-03-15T12:22:19.174Z,9.34
2023-03-15T12:25:25.519Z,9.44
2023-03-15T12:28:36.498Z,9.80
2023-03-15T12:32:04.203Z,10.32
2023-03-15T12:35:16.003Z,10.62
2023-03-15T12:38:22.811Z,10.71
2023-03-15T12:41:46.828Z,11.00
2023-03-15T12:44:48.939Z,11.42
2023-03-15T12:47:51.308Z,10.93
2023-03-15T12:51:01.588Z,11.01
2023-03-15T12:54:04.681Z,10.34
2023-03-15T12:57:10.316Z,10.31
2023-03-15T13:00:15.817Z,9.98
2023-03-15T13:03:22.273Z,9.79
2023-03-15T13:06:27.181Z,9.80
2023-03-15T13:09:52.140Z,9.60
2023-03-15T13:13:22.137Z,9.28
2023-03-15T13:16:28.006Z,9.23
2023-03-15T13:19:43.031Z,9.20
2023-03-15T13:23:10.001Z,8.97
2023-03-15T13:26:57.221Z,9.09
2023-03-15T13:29:59.480Z,8.75
2023-03-15T13:33:05.488Z,8.60
2023-03-15T13:36:20.649Z,8.53
2023-03-15T13:39:25.934Z,8.65
2023-03-15T13:42:28.568Z,8.64
2023-03-15T13:45:31.414Z,8.83
2023-03-15T13:48:39.965Z,8.67
2023-03-15T13:51:43.618Z,8.63
2023-03-15T13:54:45.956Z,8.63
2023-03-15T13:57:53.958Z,8.47
2023-03-15T14:01:00.506Z,8.45
2023-03-15T14:04:08.119Z,8.40
2023-03-15T14:07:34.115Z,8.46
2023-03-15T14:10:38.923Z,8.48
2023-03-15T14:13:59.900Z,8.43
2023-03-15T14:17:08.880Z,8.40
2023-03-15T14:20:17.181Z,8.46
2023-03-15T14:23:25.147Z,8.51
2023-03-15T14:26:29.771Z,8.50
2023-03-15T14:29:35.814Z,8.34
2023-03-15T14:32:39.387Z,8.31
2023-03-15T14:35:44.260Z,8.36
2023-03-15T14:38:52.306Z,8.27
2023-03-15T14:41:55.033Z,8.30
2023-03-15T14:44:57.622Z,8.20
2023-03-15T14:48:04.526Z,8.16
2023-03-15T14:51:07.192Z,8.12
2023-03-15T14:54:10.897Z,8.14
2023-03-15T14:57:13.151Z,8.21
2023-03-15T15:00:18.750Z,8.19
2023-03-15T15:04:01.802Z,8.19
2023-03-15T15:07:04.117Z,8.40
2023-03-15T15:10:06.982Z,8.29
2023-03-15T15:13:26.053Z,8.41
2023-03-15T15:16:28.175Z,8.42
2023-03-15T15:19:30.835Z,8.40
2023-03-15T15:22:33.328Z,8.39
2023-03-15T15:25:35.735Z,8.64
2023-03-15T15:28:38.126Z,8.87
2023-03-15T15:31:41.842Z,8.78
2023-03-15T15:34:44.730Z,8.97
2023-03-15T15:37:49.058Z,9.20
2023-03-15T15:40:52.185Z,8.88
2023-03-15T15:43:54.530Z,8.99
2023-03-15T15:46:57.585Z,8.89
2023-03-15T15:49:59.784Z,8.94
2023-03-15T15:53:05.040Z,8.89
2023-03-15T15:56:12.779Z,9.01
2023-03-15T15:59:16.185Z,8.99
2023-03-15T16:02:22.452Z,8.65
2023-03-15T16:05:29.437Z,8.59
2023-03-15T16:08:37.357Z,8.41
2023-03-15T16:11:40.194Z,8.64
2023-03-15T16:14:43.420Z,8.48
2023-03-15T16:17:46.452Z,8.35
2023-03-15T16:20:52.101Z,8.07
2023-03-15T16:24:04.010Z,8.06
2023-03-15T16:27:08.812Z,7.83
2023-03-15T16:30:31.611Z,7.71
2023-03-15T16:33:36.334Z,7.64
2023-03-15T16:36:44.062Z,7.54
2023-03-15T16:39:49.375Z,7.43
2023-03-15T16:42:53.001Z,7.40
2023-03-15T16:45:55.811Z,7.35
2023-03-15T16:48:58.826Z,7.28
2023-03-15T16:52:03.179Z,7.23
2023-03-15T16:55:06.922Z,7.13
2023-03-15T16:58:18.926Z,7.07
2023-03-15T17:01:22.015Z,6.98
2023-03-15T17:04:25.196Z,6.91
2023-03-15T17:07:38.974Z,6.84
2023-03-15T17:10:45.408Z,6.77
2023-03-15T17:13:48.540Z,6.68
2023-03-15T17:16:51.291Z,6.63
2023-03-15T17:19:54.974Z,6.61
2023-03-15T17:23:05.988Z,6.50
2023-03-15T17:26:17.529Z,6.48
2023-03-15T17:29:20.741Z,6.44
2023-03-15T17:32:24.185Z,6.41
2023-03-15T17:35:37.028Z,6.37
2023-03-15T17:38:43.143Z,6.34
2023-03-15T17:41:49.693Z,6.31
2023-03-15T17:44:52.816Z,6.24
2023-03-15T17:47:58.268Z,6.16
2023-03-15T17:51:02.585Z,6.10
2023-03-15T17:54:15.046Z,6.07
2023-03-15T17:57:17.928Z,5.97
2023-03-15T18:00:21.857Z,5.93
2023-03-15T18:03:29.402Z,5.94
2023-03-15T18:06:32.557Z,5.95
2023-03-15T18:09:37.782Z,5.92
2023-03-15T18:12:44.482Z,5.96
2023-03-15T18:15:50.365Z,5.91
2023-03-15T18:18:53.909Z,5.94
2023-03-15T18:21:57.081Z,5.91
2023-03-15T18:25:00.104Z,5.94
2023-03-15T18:28:04.172Z,5.87
2023-03-15T18:31:15.537Z,5.81
2023-03-15T18:34:22.458Z,5.78
2023-03-15T18:37:25.786Z,5.72
2023-03-15T18:40:31.925Z,5.61
2023-03-15T18:43:34.971Z,5.47
2023-03-15T18:46:37.966Z,5.38
2023-03-15T18:49:40.690Z,5.18
2023-03-15T18:52:44.090Z,5.06
2023-03-15T18:55:47.219Z,4.98
2023-03-15T18:58:51.501Z,4.88
2023-03-15T19:01:56.550Z,4.81
2023-03-15T19:04:59.904Z,4.70
2023-03-15T19:08:03.679Z,4.78
2023-03-15T19:11:09.606Z,4.88
2023-03-15T19:14:12.922Z,4.94
2023-03-15T19:17:16.029Z,4.93
2023-03-15T19:20:23.872Z,4.96
2023-03-15T19:23:28.666Z,5.02
2023-03-15T19:26:33.540Z,4.97
2023-03-15T19:29:36.881Z,4.92
2023-03-15T19:32:44.620Z,4.83
2023-03-15T19:35:47.279Z,4.80
2023-03-15T19:38:51.842Z,4.72
2023-03-15T19:41:55.447Z,4.71
2023-03-15T19:44:59.187Z,4.64
2023-03-15T19:48:02.593Z,4.56
2023-03-15T19:51:06.676Z,4.54
2023-03-15T19:54:11.431Z,4.48
2023-03-15T19:57:15.261Z,4.40
2023-03-15T20:00:20.271Z,4.37
2023-03-15T20:03:26.578Z,4.32
2023-03-15T20:06:31.359Z,4.29
2023-03-15T20:09:39.576Z,4.23
2023-03-15T20:12:43.527Z,4.18
2023-03-15T20:15:47.337Z,4.14
2023-03-15T20:18:57.061Z,4.13
2023-03-15T20:22:01.975Z,4.06
2023-03-15T20:25:05.725Z,4.06
2023-03-15T20:28:10.115Z,3.97
2023-03-15T20:31:17.590Z,3.98
2023-03-15T20:34:21.305Z,3.93
2023-03-15T20:37:29.292Z,3.97
2023-03-15T20:40:33.799Z,3.92
2023-03-15T20:43:37.598Z,3.90
2023-03-15T20:46:41.823Z,3.92
2023-03-15T20:49:44.664Z,3.89
2023-03-15T20:52:48.878Z,3.85
2023-03-15T20:55:52.860Z,3.84
2023-03-15T20:58:56.400Z,3.83
2023-03-15T21:01:59.092Z,3.81
2023-03-15T21:05:02.119Z,3.78
2023-03-15T21:08:06.228Z,3.76
2023-03-15T21:11:09.647Z,3.73
2023-03-15T21:14:12.668Z,3.67
2023-03-15T21:17:15.246Z,3.65
2023-03-15T21:20:19.259Z,3.59
2023-03-15T21:23:22.745Z,3.55
2023-03-15T21:26:25.835Z,3.57
2023-03-15T21:29:29.242Z,3.57
2023-03-15T21:32:32.138Z,3.53
2023-03-15T21:35:34.959Z,3.46
2023-03-15T21:38:38.208Z,3.43
2023-03-15T21:41:42.310Z,3.39
2023-03-15T21:44:44.957Z,3.35
2023-03-15T21:47:47.349Z,3.31
2023-03-15T21:50:49.909Z,3.32
2023-03-15T21:53:52.475Z,3.26
2023-03-15T21:56:54.977Z,3.22
2023-03-15T21:59:57.199Z,3.22
2023-03-15T22:02:59.642Z,3.21
2023-03-15T22:06:02.342Z,3.16
2023-03-15T22:09:04.584Z,3.14
2023-03-15T22:12:07.475Z,3.10
2023-03-15T22:15:10.192Z,3.03
2023-03-15T22:18:12.240Z,3.02
2023-03-15T22:21:14.419Z,3.05
2023-03-15T22:24:16.460Z,3.14
2023-03-15T22:27:18.596Z,3.21
2023-03-15T22:30:20.867Z,3.35
2023-03-15T22:33:23.166Z,3.36
2023-03-15T22:36:25.368Z,3.40
2023-03-15T22:39:27.932Z,3.41
2023-03-15T22:42:30.497Z,3.43
2023-03-15T22:45:32.466Z,3.33
2023-03-15T22:48:35.032Z,3.24
2023-03-15T22:51:40.463Z,3.24
2023-03-15T22:54:43.696Z,3.24
2023-03-15T22:57:45.741Z,3.33
2023-03-15T23:00:48.259Z,3.34
2023-03-15T23:03:51.192Z,3.28
2023-03-15T23:06:53.494Z,3.28
2023-03-15T23:09:56.090Z,3.34
2023-03-15T23:12:58.471Z,3.35
2023-03-15T23:16:04.010Z,3.35
2023-03-15T23:19:06.528Z,3.35
2023-03-15T23:22:08.657Z,3.26
2023-03-15T23:25:12.688Z,3.28
2023-03-15T23:28:17.448Z,3.21
2023-03-15T23:31:19.908Z,3.21
2023-03-15T23:34:23.594Z,3.15
2023-03-15T23:37:25.781Z,3.12
2023-03-15T23:40:28.630Z,3.08
2023-03-15T23:43:33.002Z,3.07
2023-03-15T23:46:36.411Z,3.05
2023-03-15T23:49:38.524Z,2.98
2023-03-15T23:52:41.486Z,2.95
2023-03-15T23:55:43.512Z,2.96
2023-03-15T23:58:46.105Z,2.93
